Time;durP1;ratioP1;P1;durP2;ratioP2;P2;SDS_P1;SDS_P2;PMS_P1;PMS_P2;Temp;Humidity;BMP_temperature;BMP_pressure;BME280_temperature;BME280_humidity;BME280_pressure;Samples;Min_cycle;Max_cycle;Signal;HPM_P1;HPM_P2
2023/12/06 00:01:25;;;;;;;1.57;0.80;;;;;;;6.42;nan;99028.47;5000946;28;20202;-79
2023/12/06 00:03:51;;;;;;;4.10;1.40;;;;;;;6.37;nan;99030.50;5003319;28;20226;-78
2023/12/06 00:06:17;;;;;;;1.83;1.17;;;;;;;6.39;nan;99037.31;5009399;28;20895;-78
2023/12/06 00:08:42;;;;;;;3.53;1.55;;;;;;;6.38;nan;99034.81;5001973;28;20446;-78
2023/12/06 00:11:08;;;;;;;1.83;1.33;;;;;;;6.41;nan;99042.47;5004438;28;20191;-78
2023/12/06 00:13:33;;;;;;;2.77;2.00;;;;;;;6.41;nan;99030.25;5002143;28;20195;-78
2023/12/06 00:15:59;;;;;;;1.60;1.10;;;;;;;6.41;nan;99030.25;5006637;28;20242;-78
2023/12/06 00:18:24;;;;;;;2.00;1.40;;;;;;;6.40;nan;99035.56;5006524;28;22459;-78
2023/12/06 00:20:50;;;;;;;9.10;1.47;;;;;;;6.37;nan;99035.72;5003139;28;20294;-78
2023/12/06 00:23:15;;;;;;;2.67;1.40;;;;;;;6.39;nan;99041.69;4997968;28;20687;-77
2023/12/06 00:25:41;;;;;;;2.10;1.13;;;;;;;6.37;nan;99046.16;5006028;28;20469;-78
2023/12/06 00:28:06;;;;;;;1.27;1.17;;;;;;;6.36;nan;99052.31;5000609;28;20219;-77
2023/12/06 00:30:31;;;;;;;1.70;1.37;;;;;;;6.35;nan;99046.25;5003813;28;20195;-78
2023/12/06 00:32:57;;;;;;;1.80;1.70;;;;;;;6.34;nan;99049.78;4996396;28;20212;-78
2023/12/06 00:35:22;;;;;;;3.87;1.30;;;;;;;6.35;nan;99051.47;5008799;28;20223;-77
2023/12/06 00:37:48;;;;;;;2.53;2.33;;;;;;;6.32;nan;99050.78;4997577;28;20187;-77
2023/12/06 00:40:13;;;;;;;2.30;1.63;;;;;;;6.31;nan;99055.16;4997550;28;20191;-77
2023/12/06 00:42:39;;;;;;;1.90;1.33;;;;;;;6.31;nan;99049.94;4999975;28;20305;-77
2023/12/06 00:45:05;;;;;;;1.40;1.30;;;;;;;6.32;nan;99062.06;5003015;28;20258;-78
2023/12/06 00:47:30;;;;;;;2.97;1.37;;;;;;;6.32;nan;99051.66;4998412;28;20484;-78
2023/12/06 00:50:38;;;;;;;1.27;1.13;;;;;;;6.29;nan;99054.44;4999222;28;20477;-78
2023/12/06 00:53:06;;;;;;;5.43;1.63;;;;;;;6.30;nan;99056.09;5000857;28;20203;-78
2023/12/06 00:55:32;;;;;;;1.38;1.27;;;;;;;6.30;nan;99063.09;4995858;28;20212;-79
2023/12/06 00:57:57;;;;;;;4.40;1.60;;;;;;;6.30;nan;99063.91;4999482;28;20197;-78
2023/12/06 01:00:22;;;;;;;1.47;1.37;;;;;;;6.29;nan;99056.16;4996145;28;20301;-77
2023/12/06 01:02:48;;;;;;;5.80;1.93;;;;;;;6.30;nan;99065.69;4994504;28;20203;-78
2023/12/06 01:05:13;;;;;;;1.80;1.30;;;;;;;6.29;nan;99056.16;4999741;28;20240;-77
2023/12/06 01:07:38;;;;;;;2.60;1.10;;;;;;;6.30;nan;99074.34;5007392;28;20412;-78
2023/12/06 01:10:08;;;;;;;2.37;1.57;;;;;;;6.30;nan;99069.13;4994719;28;20959;-78
2023/12/06 01:12:35;;;;;;;2.58;1.33;;;;;;;6.29;nan;99072.69;4999361;28;20218;-79
2023/12/06 01:15:03;;;;;;;3.83;1.63;;;;;;;6.31;nan;99085.63;5001206;28;20720;-79
2023/12/06 01:17:28;;;;;;;1.65;1.48;;;;;;;6.30;nan;99084.78;4993869;28;20191;-79
2023/12/06 01:19:54;;;;;;;2.10;1.27;;;;;;;6.28;nan;99084.03;5000885;28;20278;-79
2023/12/06 01:22:19;;;;;;;4.70;1.97;;;;;;;6.28;nan;99085.78;5000163;28;20204;-79
2023/12/06 01:24:46;;;;;;;1.50;1.30;;;;;;;6.27;nan;99077.13;5001345;28;20207;-79
2023/12/06 01:27:12;;;;;;;4.30;1.75;;;;;;;6.28;nan;99085.78;5002290;28;20219;-78
2023/12/06 01:29:37;;;;;;;3.27;1.43;;;;;;;6.28;nan;99089.25;5002185;28;20219;-79
2023/12/06 01:32:03;;;;;;;3.20;1.27;;;;;;;6.29;nan;99079.63;5005576;28;20772;-78
2023/12/06 01:34:28;;;;;;;1.77;1.33;;;;;;;6.29;nan;99084.84;4996940;28;20211;-78
2023/12/06 01:36:54;;;;;;;1.53;1.30;;;;;;;6.28;nan;99089.25;5005780;28;20188;-78
2023/12/06 01:39:20;;;;;;;9.80;1.83;;;;;;;6.28;nan;99089.25;5001469;28;20203;-78
2023/12/06 01:41:48;;;;;;;3.10;1.65;;;;;;;6.27;nan;99095.38;5000212;28;20209;-79
2023/12/06 01:44:13;;;;;;;2.63;1.40;;;;;;;6.27;nan;99100.59;5003873;28;20195;-79
2023/12/06 01:46:39;;;;;;;2.70;1.53;;;;;;;6.27;nan;99099.78;4998537;28;20198;-78
2023/12/06 01:49:05;;;;;;;3.10;1.87;;;;;;;6.27;nan;99100.59;5000187;28;21146;-78
2023/12/06 01:51:31;;;;;;;2.75;2.30;;;;;;;6.26;nan;99106.72;5000775;28;20210;-79
2023/12/06 01:53:57;;;;;;;1.70;1.23;;;;;;;6.27;nan;99105.81;4996958;28;20195;-78
2023/12/06 01:56:22;;;;;;;3.93;1.47;;;;;;;6.27;nan;99098.00;5002372;28;20658;-79
2023/12/06 01:58:49;;;;;;;2.13;1.87;;;;;;;6.28;nan;99104.88;5005641;28;20477;-78
2023/12/06 02:01:14;;;;;;;2.70;1.60;;;;;;;6.28;nan;99101.44;4999340;28;20281;-76
2023/12/06 02:03:40;;;;;;;4.30;1.40;;;;;;;6.27;nan;99095.38;4998036;28;20723;-79
2023/12/06 02:06:07;;;;;;;4.00;2.10;;;;;;;6.29;nan;99096.16;4994302;28;20455;-79
2023/12/06 02:08:35;;;;;;;3.25;1.77;;;;;;;6.29;nan;99098.75;4992630;28;20256;-78
2023/12/06 02:11:00;;;;;;;2.88;1.55;;;;;;;6.29;nan;99105.72;4998059;28;20195;-77
2023/12/06 02:13:27;;;;;;;3.57;1.90;;;;;;;6.29;nan;99110.94;4998337;28;20213;-78
2023/12/06 02:15:53;;;;;;;3.13;1.45;;;;;;;6.28;nan;99112.72;4997554;28;20203;-78
2023/12/06 02:18:20;;;;;;;2.42;1.60;;;;;;;6.29;nan;99118.75;4993478;28;20195;-78
2023/12/06 02:20:45;;;;;;;2.85;1.45;;;;;;;6.29;nan;99108.34;4993701;28;20199;-78
2023/12/06 02:23:12;;;;;;;2.07;1.50;;;;;;;6.30;nan;99116.09;4994690;28;20204;-77
2023/12/06 02:25:38;;;;;;;2.03;1.50;;;;;;;6.31;nan;99117.75;4996497;28;20278;-78
2023/12/06 02:28:03;;;;;;;2.07;1.30;;;;;;;6.31;nan;99112.53;4994463;28;20291;-77
2023/12/06 02:30:28;;;;;;;3.30;1.67;;;;;;;6.31;nan;99115.16;4996350;28;20211;-78
2023/12/06 02:32:54;;;;;;;8.60;2.50;;;;;;;6.31;nan;99116.94;4994243;28;20237;-78
2023/12/06 02:35:30;;;;;;;2.40;1.73;;;;;;;6.28;nan;99112.72;4999827;28;20212;-78
2023/12/06 02:37:57;;;;;;;1.70;1.40;;;;;;;6.29;nan;99114.41;5000448;28;20735;-78
2023/12/06 02:40:25;;;;;;;3.88;2.03;;;;;;;6.28;nan;99115.31;4997772;28;20218;-78
2023/12/06 02:42:50;;;;;;;3.15;1.40;;;;;;;6.29;nan;99109.19;4997788;28;20583;-78
2023/12/06 02:45:16;;;;;;;2.13;1.80;;;;;;;6.30;nan;99117.84;4992335;28;20211;-79
2023/12/06 02:47:41;;;;;;;7.60;1.67;;;;;;;6.31;nan;99109.09;5002781;28;20210;-78
2023/12/06 02:50:07;;;;;;;2.30;1.87;;;;;;;6.30;nan;99110.03;4991551;28;20191;-80
2023/12/06 02:52:33;;;;;;;4.07;2.00;;;;;;;6.29;nan;99113.56;4987357;28;20222;-79
2023/12/06 02:54:58;;;;;;;3.83;1.77;;;;;;;6.30;nan;99120.47;4986957;28;20206;-79
2023/12/06 02:57:23;;;;;;;1.77;1.47;;;;;;;6.29;nan;99114.41;4985199;28;20187;-79
2023/12/06 02:59:49;;;;;;;1.47;1.33;;;;;;;6.28;nan;99117.09;4984668;28;20394;-80
2023/12/06 03:02:15;;;;;;;3.13;1.57;;;;;;;6.27;nan;99115.41;4990960;28;20246;-81
2023/12/06 03:04:44;;;;;;;5.68;2.00;;;;;;;6.26;nan;99111.94;4994319;28;20921;-80
2023/12/06 03:07:10;;;;;;;1.80;1.67;;;;;;;6.26;nan;99119.78;4994855;28;20357;-79
2023/12/06 03:09:36;;;;;;;3.33;1.53;;;;;;;6.25;nan;99118.09;4989243;28;20199;-79
2023/12/06 03:12:01;;;;;;;1.60;1.50;;;;;;;6.27;nan;99120.63;4998955;28;20195;-78
2023/12/06 03:14:27;;;;;;;2.57;1.47;;;;;;;6.27;nan;99124.09;4995736;28;20988;-78
2023/12/06 03:16:53;;;;;;;7.25;1.67;;;;;;;6.28;nan;99117.94;5011247;28;20661;-77
2023/12/06 03:19:18;;;;;;;1.73;1.57;;;;;;;6.27;nan;99116.25;4994893;28;20233;-77
2023/12/06 03:21:44;;;;;;;3.90;1.47;;;;;;;6.28;nan;99117.94;4991198;28;20187;-78
2023/12/06 03:24:09;;;;;;;1.77;1.23;;;;;;;6.29;nan;99124.84;4993892;28;21096;-77
2023/12/06 03:26:34;;;;;;;2.43;1.70;;;;;;;6.27;nan;99118.88;4997062;28;20210;-77
2023/12/06 03:29:00;;;;;;;3.63;1.47;;;;;;;6.27;nan;99121.47;4999995;28;20207;-77
2023/12/06 03:31:25;;;;;;;5.10;1.50;;;;;;;6.29;nan;99113.56;4995402;28;20207;-77
2023/12/06 03:33:50;;;;;;;3.50;1.30;;;;;;;6.28;nan;99115.31;4993152;28;20218;-78
2023/12/06 03:36:16;;;;;;;3.10;2.00;;;;;;;6.28;nan;99119.69;4996135;28;20198;-77
2023/12/06 03:38:41;;;;;;;3.50;2.15;;;;;;;6.29;nan;99123.97;4990665;28;20793;-77
2023/12/06 03:41:07;;;;;;;2.23;1.80;;;;;;;6.27;nan;99118.88;4994601;28;20680;-79
2023/12/06 03:43:33;;;;;;;2.13;1.55;;;;;;;6.26;nan;99114.56;4994088;28;20293;-78
2023/12/06 03:45:58;;;;;;;2.20;1.50;;;;;;;6.26;nan;99119.78;4997903;28;20287;-78
2023/12/06 03:48:24;;;;;;;2.07;1.87;;;;;;;6.25;nan;99131.13;4994727;28;20218;-78
2023/12/06 03:50:50;;;;;;;4.30;2.07;;;;;;;6.25;nan;99130.31;4997427;28;20614;-78
2023/12/06 03:53:15;;;;;;;2.13;1.50;;;;;;;6.24;nan;99136.41;4996220;28;20246;-78
2023/12/06 03:55:40;;;;;;;3.03;2.77;;;;;;;6.25;nan;99133.75;4994122;28;20481;-77
2023/12/06 03:58:06;;;;;;;4.37;2.27;;;;;;;6.25;nan;99138.97;4993617;28;20283;-78
2023/12/06 04:00:32;;;;;;;14.38;2.10;;;;;;;6.24;nan;99136.41;4997477;28;20341;-79
2023/12/06 04:02:57;;;;;;;1.50;1.40;;;;;;;6.23;nan;99135.59;4990640;28;20199;-77
2023/12/06 04:05:23;;;;;;;2.60;1.30;;;;;;;6.22;nan;99148.72;4998849;28;20233;-77
2023/12/06 04:07:49;;;;;;;3.53;1.47;;;;;;;6.25;nan;99135.53;4993568;28;20218;-78
2023/12/06 04:10:14;;;;;;;1.85;1.23;;;;;;;6.25;nan;99138.13;4996709;28;20237;-78
2023/12/06 04:12:40;;;;;;;2.20;2.00;;;;;;;6.24;nan;99137.28;4992229;28;20203;-78
2023/12/06 04:15:06;;;;;;;1.70;1.60;;;;;;;6.23;nan;99139.97;4998600;28;20214;-78
2023/12/06 04:17:31;;;;;;;2.35;1.55;;;;;;;6.24;nan;99136.41;4996205;28;20661;-78
2023/12/06 04:19:57;;;;;;;2.10;1.90;;;;;;;6.25;nan;99135.53;4997980;28;20199;-78
2023/12/06 04:22:22;;;;;;;1.47;1.37;;;;;;;6.24;nan;99133.81;4995446;28;20295;-78
2023/12/06 04:24:47;;;;;;;1.63;1.50;;;;;;;6.23;nan;99132.16;4997490;28;20214;-77
2023/12/06 04:27:13;;;;;;;2.33;2.13;;;;;;;6.24;nan;99139.03;4997134;28;20294;-78
2023/12/06 04:29:38;;;;;;;5.83;1.60;;;;;;;6.24;nan;99150.34;4998879;28;20221;-78
2023/12/06 04:32:04;;;;;;;2.40;1.30;;;;;;;6.25;nan;99140.72;4997268;28;20409;-78
2023/12/06 04:34:32;;;;;;;3.03;2.03;;;;;;;6.24;nan;99146.84;4999218;28;20853;-78
2023/12/06 04:36:57;;;;;;;2.60;2.05;;;;;;;6.23;nan;99140.81;5008737;28;20228;-80
2023/12/06 04:39:23;;;;;;;5.07;2.43;;;;;;;6.24;nan;99142.50;4999221;28;20262;-79
2023/12/06 04:41:49;;;;;;;2.43;1.80;;;;;;;6.23;nan;99148.63;4999462;28;20195;-78
2023/12/06 04:44:14;;;;;;;2.30;1.60;;;;;;;6.21;nan;99147.84;5001305;28;20199;-79
2023/12/06 04:46:40;;;;;;;3.20;1.77;;;;;;;6.23;nan;99155.63;5007169;28;20199;-77
2023/12/06 04:49:05;;;;;;;2.30;1.20;;;;;;;6.23;nan;99143.41;4995606;28;20204;-79
2023/12/06 04:51:31;;;;;;;2.20;1.37;;;;;;;6.24;nan;99146.84;4997440;28;20822;-78
2023/12/06 04:53:56;;;;;;;4.03;1.37;;;;;;;6.24;nan;99152.94;4999465;28;20199;-79
2023/12/06 04:56:21;;;;;;;2.80;1.80;;;;;;;6.23;nan;99153.84;4997735;28;20585;-79
2023/12/06 04:58:47;;;;;;;2.57;1.53;;;;;;;6.25;nan;99152.00;4996028;28;20219;-79
2023/12/06 05:01:12;;;;;;;4.10;2.27;;;;;;;6.24;nan;99159.91;5007225;28;20210;-79
2023/12/06 05:03:38;;;;;;;2.40;2.03;;;;;;;6.24;nan;99171.19;5003262;28;20226;-79
2023/12/06 05:06:03;;;;;;;2.57;2.00;;;;;;;6.25;nan;99172.88;5002551;28;20233;-79
2023/12/06 05:08:29;;;;;;;3.70;1.50;;;;;;;6.25;nan;99169.44;5005321;28;20226;-78
2023/12/06 05:10:55;;;;;;;2.47;1.50;;;;;;;6.26;nan;99171.09;5006555;28;20247;-77
2023/12/06 05:13:20;;;;;;;1.40;1.30;;;;;;;6.26;nan;99171.94;5024893;28;20565;-78
2023/12/06 05:15:48;;;;;;;1.37;1.13;;;;;;;6.28;nan;99169.25;5006819;28;20206;-76
2023/12/06 05:18:14;;;;;;;3.25;1.75;;;;;;;6.27;nan;99180.63;5001883;28;20652;-78
2023/12/06 05:20:39;;;;;;;2.50;1.50;;;;;;;6.26;nan;99182.38;5007766;28;20198;-79
2023/12/06 05:23:05;;;;;;;1.43;1.10;;;;;;;6.25;nan;99180.69;4991208;28;20325;-79
2023/12/06 05:25:32;;;;;;;2.80;1.70;;;;;;;6.26;nan;99187.59;4990461;28;20215;-78
2023/12/06 05:27:58;;;;;;;1.95;1.30;;;;;;;6.27;nan;99189.28;4985714;28;20218;-78
2023/12/06 05:30:24;;;;;;;1.60;1.30;;;;;;;6.28;nan;99187.50;4987294;28;20204;-79
2023/12/06 05:32:50;;;;;;;4.25;1.83;;;;;;;6.28;nan;99190.13;4992851;28;20207;-79
2023/12/06 05:35:16;;;;;;;2.07;1.67;;;;;;;6.26;nan;99187.59;4990119;28;20214;-79
2023/12/06 05:37:41;;;;;;;1.87;1.60;;;;;;;6.28;nan;99185.75;4989036;28;20184;-78
2023/12/06 05:40:07;;;;;;;4.27;1.63;;;;;;;6.29;nan;99194.41;4986907;28;21400;-79
2023/12/06 05:42:32;;;;;;;1.63;1.50;;;;;;;6.29;nan;99189.19;4989225;28;20203;-78
2023/12/06 05:44:57;;;;;;;4.30;1.70;;;;;;;6.26;nan;99195.41;4985533;28;20215;-80
2023/12/06 05:47:23;;;;;;;1.67;1.57;;;;;;;6.26;nan;99189.34;4988403;28;20218;-78
2023/12/06 05:49:49;;;;;;;3.70;2.17;;;;;;;6.26;nan;99197.19;4990098;28;20222;-78
2023/12/06 05:52:14;;;;;;;4.30;1.90;;;;;;;6.26;nan;99203.22;4989812;28;20214;-78
2023/12/06 05:54:39;;;;;;;2.43;1.70;;;;;;;6.26;nan;99210.22;4988320;28;20743;-79
2023/12/06 05:57:06;;;;;;;6.70;1.43;;;;;;;6.26;nan;99207.63;4990936;28;20191;-77
2023/12/06 05:59:32;;;;;;;1.58;1.40;;;;;;;6.26;nan;99213.66;4989298;28;20203;-78
2023/12/06 06:01:57;;;;;;;5.10;2.00;;;;;;;6.29;nan;99210.06;4990163;28;20230;-78
2023/12/06 06:04:23;;;;;;;4.60;2.90;;;;;;;6.28;nan;99213.59;4995186;28;20202;-78
2023/12/06 06:06:48;;;;;;;3.00;1.93;;;;;;;6.27;nan;99215.38;5000695;28;20202;-78
2023/12/06 06:09:14;;;;;;;3.90;2.40;;;;;;;6.29;nan;99212.66;4984892;28;20513;-77
2023/12/06 06:11:39;;;;;;;4.40;2.80;;;;;;;6.28;nan;99217.03;4995973;28;20227;-77
2023/12/06 06:14:05;;;;;;;2.37;1.90;;;;;;;6.28;nan;99217.03;4998176;28;20257;-77
2023/12/06 06:16:31;;;;;;;3.35;1.92;;;;;;;6.27;nan;99228.41;4998641;28;20225;-77
2023/12/06 06:18:56;;;;;;;2.17;1.60;;;;;;;6.27;nan;99230.19;4988596;28;20676;-77
2023/12/06 06:21:22;;;;;;;3.63;1.70;;;;;;;6.25;nan;99232.84;4994131;28;20202;-77
2023/12/06 06:23:50;;;;;;;1.83;1.67;;;;;;;6.25;nan;99238.06;5000189;28;20568;-77
2023/12/06 06:26:16;;;;;;;1.60;1.40;;;;;;;6.23;nan;99241.69;4988408;28;20187;-77
2023/12/06 06:28:42;;;;;;;5.20;2.08;;;;;;;6.21;nan;99241.75;4990994;28;20199;-77
2023/12/06 06:31:08;;;;;;;1.83;1.73;;;;;;;6.22;nan;99248.66;4993607;28;20215;-77
2023/12/06 06:33:33;;;;;;;1.80;1.30;;;;;;;6.20;nan;99255.72;4995460;28;20199;-77
2023/12/06 06:35:59;;;;;;;2.50;1.63;;;;;;;6.19;nan;99247.06;4996161;28;20199;-77
2023/12/06 06:38:24;;;;;;;4.50;2.40;;;;;;;6.19;nan;99254.03;4989293;28;20440;-77
2023/12/06 06:40:49;;;;;;;2.40;2.13;;;;;;;6.19;nan;99259.25;4993142;28;20630;-77
2023/12/06 06:43:15;;;;;;;3.67;2.47;;;;;;;6.17;nan;99261.09;4983509;28;20204;-77
2023/12/06 06:45:42;;;;;;;2.00;1.67;;;;;;;6.14;nan;99253.44;4990784;28;20260;-77
2023/12/06 06:48:12;;;;;;;3.88;2.15;;;;;;;6.12;nan;99263.94;4988356;28;20635;-77
2023/12/06 06:50:37;;;;;;;1.98;1.77;;;;;;;6.10;nan;99265.78;4989766;28;20265;-77
2023/12/06 06:53:03;;;;;;;3.67;2.50;;;;;;;6.10;nan;99268.41;4979618;28;20196;-77
2023/12/06 06:55:29;;;;;;;1.80;1.70;;;;;;;6.10;nan;99271.00;4994669;28;20195;-77
2023/12/06 06:57:56;;;;;;;3.43;2.17;;;;;;;6.07;nan;99270.28;4989542;28;20202;-77
2023/12/06 07:00:22;;;;;;;4.53;3.22;;;;;;;6.06;nan;99279.06;4988735;28;20198;-75
2023/12/06 07:02:48;;;;;;;5.28;3.13;;;;;;;6.05;nan;99282.56;4990541;28;20199;-77
2023/12/06 07:05:14;;;;;;;4.68;3.05;;;;;;;6.01;nan;99279.28;4986041;28;22626;-78
2023/12/06 07:07:40;;;;;;;3.27;2.33;;;;;;;6.00;nan;99276.75;4979056;28;20254;-78
2023/12/06 07:10:09;;;;;;;3.45;2.67;;;;;;;5.96;nan;99278.66;4989382;28;20333;-78
2023/12/06 07:12:36;;;;;;;6.55;2.83;;;;;;;5.95;nan;99276.97;4994320;28;20344;-78
2023/12/06 07:15:02;;;;;;;6.53;2.92;;;;;;;5.94;nan;99283.97;4996678;28;20282;-79
2023/12/06 07:17:27;;;;;;;3.67;2.73;;;;;;;5.93;nan;99284.88;4993109;28;20195;-78
2023/12/06 07:19:54;;;;;;;5.83;2.60;;;;;;;5.92;nan;99293.59;4996379;28;20454;-78
2023/12/06 07:22:21;;;;;;;7.38;2.88;;;;;;;5.89;nan;99304.16;5002703;28;20207;-77
2023/12/06 07:24:47;;;;;;;3.38;3.05;;;;;;;5.90;nan;99308.44;5002917;23;20322;-77
2023/12/06 07:27:12;;;;;;;8.20;3.83;;;;;;;5.90;nan;99316.28;4973280;28;20311;-77
2023/12/06 07:29:38;;;;;;;3.00;2.23;;;;;;;5.90;nan;99313.66;4970816;28;20199;-77
2023/12/06 07:32:04;;;;;;;3.83;3.17;;;;;;;5.91;nan;99312.75;4976594;28;20200;-77
2023/12/06 07:34:29;;;;;;;2.90;2.00;;;;;;;5.91;nan;99317.97;4974389;28;20200;-77
2023/12/06 07:36:54;;;;;;;2.55;1.85;;;;;;;5.92;nan;99324.88;4975942;28;20263;-76
2023/12/06 07:39:20;;;;;;;2.20;2.00;;;;;;;5.94;nan;99324.81;4965845;28;20211;-76
2023/12/06 07:41:46;;;;;;;4.47;2.70;;;;;;;5.95;nan;99329.97;4973038;28;20496;-76
2023/12/06 07:44:12;;;;;;;5.03;2.50;;;;;;;5.97;nan;99328.13;4978304;28;20204;-76
2023/12/06 07:46:38;;;;;;;2.67;2.10;;;;;;;5.97;nan;99320.31;4973633;28;20431;-76
2023/12/06 07:49:04;;;;;;;2.60;2.40;;;;;;;5.98;nan;99329.81;4970673;28;20265;-76
2023/12/06 07:51:29;;;;;;;3.80;2.60;;;;;;;6.01;nan;99333.19;4949897;28;20204;-76
2023/12/06 07:53:56;;;;;;;2.90;2.20;;;;;;;6.02;nan;99334.88;4979153;28;20208;-76
2023/12/06 07:56:22;;;;;;;4.05;2.78;;;;;;;6.01;nan;99334.03;4970792;28;20204;-76
2023/12/06 07:58:47;;;;;;;4.40;2.00;;;;;;;6.04;nan;99338.25;4968720;28;20188;-76
2023/12/06 08:01:13;;;;;;;3.80;2.50;;;;;;;6.03;nan;99339.19;4967702;28;20670;-77
2023/12/06 08:03:39;;;;;;;2.77;2.50;;;;;;;6.01;nan;99343.63;4977745;28;20241;-77
2023/12/06 08:06:06;;;;;;;2.85;2.35;;;;;;;6.03;nan;99342.63;4975398;28;20203;-77
2023/12/06 08:08:33;;;;;;;3.58;2.58;;;;;;;6.05;nan;99350.34;4977955;28;20706;-77
2023/12/06 08:11:00;;;;;;;3.83;3.33;;;;;;;6.06;nan;99352.06;4973958;28;20200;-76
2023/12/06 08:13:27;;;;;;;3.42;2.35;;;;;;;6.08;nan;99355.44;4974333;28;20208;-77
2023/12/06 08:15:52;;;;;;;3.97;2.00;;;;;;;6.09;nan;99357.97;4983278;28;20239;-77
2023/12/06 08:18:17;;;;;;;3.67;2.83;;;;;;;6.09;nan;99352.75;4978314;28;20259;-77
2023/12/06 08:20:43;;;;;;;2.23;2.03;;;;;;;6.09;nan;99352.75;4981253;28;20206;-77
2023/12/06 08:23:08;;;;;;;3.10;2.20;;;;;;;6.11;nan;99350.91;4973096;28;20226;-76
2023/12/06 08:25:34;;;;;;;7.80;4.00;;;;;;;6.12;nan;99356.97;4973205;28;20212;-77
2023/12/06 08:27:59;;;;;;;7.93;3.30;;;;;;;6.13;nan;99363.84;4977414;28;20211;-77
2023/12/06 08:30:24;;;;;;;9.27;4.57;;;;;;;6.13;nan;99363.84;4980383;28;20195;-77
2023/12/06 08:32:50;;;;;;;7.43;4.53;;;;;;;6.14;nan;99360.34;4977250;28;20608;-76
2023/12/06 08:35:16;;;;;;;7.97;4.50;;;;;;;6.15;nan;99364.63;4976707;28;20212;-78
2023/12/06 08:37:41;;;;;;;6.07;4.10;;;;;;;6.16;nan;99363.72;4978451;28;20215;-78
2023/12/06 08:40:09;;;;;;;9.43;4.73;;;;;;;6.17;nan;99371.47;4973108;28;20253;-77
2023/12/06 08:42:35;;;;;;;9.07;6.75;;;;;;;6.19;nan;99369.63;4982679;28;20371;-76
2023/12/06 08:45:00;;;;;;;4.40;2.90;;;;;;;6.21;nan;99374.75;4977796;28;20806;-76
2023/12/06 08:47:26;;;;;;;3.90;3.27;;;;;;;6.22;nan;99373.00;4975701;28;20216;-77
2023/12/06 08:49:51;;;;;;;4.57;3.40;;;;;;;6.23;nan;99378.13;4982241;28;20219;-76
2023/12/06 08:52:16;;;;;;;4.93;3.10;;;;;;;6.24;nan;99385.06;4978781;28;20767;-77
2023/12/06 08:54:42;;;;;;;3.83;2.80;;;;;;;6.23;nan;99388.56;4978098;28;20203;-77
2023/12/06 08:57:07;;;;;;;3.40;2.67;;;;;;;6.25;nan;99380.69;4977234;28;20227;-77
2023/12/06 08:59:33;;;;;;;5.07;3.00;;;;;;;6.28;nan;99391.78;4983296;28;20377;-78
2023/12/06 09:01:58;;;;;;;5.30;4.13;;;;;;;6.31;nan;99396.03;4978043;28;20240;-77
2023/12/06 09:04:24;;;;;;;3.77;3.30;;;;;;;6.34;nan;99390.66;4980664;28;20234;-78
2023/12/06 09:06:49;;;;;;;6.10;3.23;;;;;;;6.32;nan;99401.19;4972215;28;20231;-76
2023/12/06 09:09:18;;;;;;;6.23;3.87;;;;;;;6.32;nan;99393.34;4983860;28;20211;-76
2023/12/06 09:11:45;;;;;;;7.47;3.92;;;;;;;6.35;nan;99403.63;4975370;28;20256;-78
2023/12/06 09:14:11;;;;;;;4.38;3.55;;;;;;;6.36;nan;99400.09;4970652;28;20200;-78
2023/12/06 09:16:36;;;;;;;6.50;4.20;;;;;;;6.38;nan;99400.03;4981461;28;20203;-78
2023/12/06 09:19:03;;;;;;;8.30;6.80;;;;;;;6.41;nan;99408.53;4976105;28;20195;-77
2023/12/06 09:21:39;;;;;;;8.13;6.15;;;;;;;6.43;nan;99411.91;4982510;28;20207;-77
2023/12/06 09:24:05;;;;;;;7.28;6.18;;;;;;;6.46;nan;99412.69;4968253;28;20258;-78
2023/12/06 09:26:31;;;;;;;8.83;5.97;;;;;;;6.49;nan;99417.75;4973706;28;20224;-77
2023/12/06 09:28:56;;;;;;;7.93;5.90;;;;;;;6.51;nan;99418.50;4975475;28;20314;-77
2023/12/06 09:31:22;;;;;;;5.10;4.33;;;;;;;6.54;nan;99427.03;4979707;28;20451;-78
2023/12/06 09:33:47;;;;;;;5.60;4.30;;;;;;;6.57;nan;99426.88;4971850;28;20211;-77
2023/12/06 09:36:12;;;;;;;7.83;4.93;;;;;;;6.59;nan;99432.88;4978915;28;20238;-77
2023/12/06 09:38:38;;;;;;;6.67;4.13;;;;;;;6.61;nan;99425.78;4974573;28;20548;-77
2023/12/06 09:41:05;;;;;;;5.93;3.77;;;;;;;6.64;nan;99420.44;4982224;28;20192;-77
2023/12/06 09:43:31;;;;;;;5.65;5.05;;;;;;;6.67;nan;99422.06;4977880;28;20246;-76
2023/12/06 09:45:56;;;;;;;9.02;5.50;;;;;;;6.71;nan;99420.97;4981706;28;20204;-77
2023/12/06 09:48:22;;;;;;;4.97;3.30;;;;;;;6.73;nan;99426.97;4978054;28;20224;-77
2023/12/06 09:50:47;;;;;;;10.10;5.50;;;;;;;6.76;nan;99432.00;4975798;28;20833;-77
2023/12/06 09:53:13;;;;;;;6.77;4.37;;;;;;;6.80;nan;99427.47;4969880;28;20234;-78
2023/12/06 09:55:38;;;;;;;8.60;4.00;;;;;;;6.82;nan;99420.41;4970147;28;20346;-77
2023/12/06 09:58:04;;;;;;;7.20;5.00;;;;;;;6.85;nan;99425.47;4974491;28;20560;-77
2023/12/06 10:00:30;;;;;;;6.37;4.77;;;;;;;6.87;nan;99429.69;4976607;28;20799;-77
2023/12/06 10:02:57;;;;;;;5.03;3.17;;;;;;;6.90;nan;99430.47;4982145;28;21021;-78
2023/12/06 10:05:23;;;;;;;2.97;2.78;;;;;;;6.91;nan;99432.97;4972177;28;20224;-77
2023/12/06 10:07:49;;;;;;;5.10;3.57;;;;;;;6.91;nan;99437.38;4972083;28;20215;-78
2023/12/06 10:10:19;;;;;;;7.55;3.45;;;;;;;6.96;nan;99443.19;4973300;28;20278;-77
2023/12/06 10:12:58;;;;;;;6.55;3.00;;;;;;;7.02;nan;99437.66;4981254;28;20203;-77
2023/12/06 10:15:24;;;;;;;5.43;3.55;;;;;;;7.07;nan;99451.31;4978509;28;20211;-77
2023/12/06 10:17:51;;;;;;;3.53;3.20;;;;;;;7.15;nan;99443.09;4973686;28;20184;-77
2023/12/06 10:20:16;;;;;;;3.90;2.90;;;;;;;7.16;nan;99444.81;4977491;28;20198;-78
2023/12/06 10:22:42;;;;;;;5.57;2.70;;;;;;;7.16;nan;99453.47;4978635;28;20564;-77
2023/12/06 10:25:08;;;;;;;2.80;2.57;;;;;;;7.18;nan;99456.00;4976471;28;20478;-76
2023/12/06 10:27:37;;;;;;;3.78;2.40;;;;;;;7.21;nan;99448.84;4953702;28;20204;-78
2023/12/06 10:30:11;;;;;;;4.43;2.90;;;;;;;7.20;nan;99447.16;4977993;28;20222;-77
2023/12/06 10:32:36;;;;;;;5.00;2.95;;;;;;;7.24;nan;99448.69;4980892;28;20318;-77
2023/12/06 10:35:06;;;;;;;3.77;3.07;;;;;;;7.29;nan;99448.44;4981065;28;20291;-77
2023/12/06 10:37:32;;;;;;;2.58;2.30;;;;;;;7.31;nan;99452.66;4965850;28;20200;-77
2023/12/06 10:40:00;;;;;;;4.10;2.83;;;;;;;7.35;nan;99460.34;4975060;28;20200;-77
2023/12/06 10:42:33;;;;;;;4.40;2.40;;;;;;;7.36;nan;99451.59;4975201;28;20204;-78
2023/12/06 10:45:00;;;;;;;4.47;2.70;;;;;;;7.37;nan;99453.25;4975153;28;20238;-78
2023/12/06 10:47:27;;;;;;;3.55;2.78;;;;;;;7.37;nan;99458.47;4975523;28;20723;-78
2023/12/06 10:49:54;;;;;;;4.68;3.28;;;;;;;7.38;nan;99455.81;4972133;28;20210;-78
2023/12/06 10:52:20;;;;;;;3.45;2.70;;;;;;;7.37;nan;99451.50;4953895;28;20326;-78
2023/12/06 10:54:46;;;;;;;8.55;4.35;;;;;;;7.37;nan;99448.03;4971913;28;20203;-79
2023/12/06 10:57:12;;;;;;;6.53;4.47;;;;;;;7.35;nan;99444.69;4975935;28;20202;-78
2023/12/06 10:59:39;;;;;;;8.30;4.33;;;;;;;7.33;nan;99452.59;4968917;28;20207;-78
2023/12/06 11:02:07;;;;;;;5.38;3.58;;;;;;;7.34;nan;99449.03;4973371;28;21312;-78
2023/12/06 11:04:36;;;;;;;6.70;4.55;;;;;;;7.35;nan;99457.75;4971029;28;20247;-78
2023/12/06 11:07:20;;;;;;;7.50;5.50;;;;;;;7.36;nan;99451.59;4977584;28;20196;-78
2023/12/06 11:10:10;;;;;;;8.73;4.50;;;;;;;7.35;nan;99448.13;4971904;28;20202;-78
2023/12/06 11:13:11;;;;;;;7.45;4.13;;;;;;;7.32;nan;99443.91;4962688;28;20572;-78
2023/12/06 11:15:53;;;;;;;7.55;2.80;;;;;;;7.36;nan;99447.19;4953975;28;20758;-78
2023/12/06 11:18:23;;;;;;;3.70;2.58;;;;;;;7.38;nan;99449.75;4957709;28;20200;-78
2023/12/06 11:20:48;;;;;;;5.68;3.92;;;;;;;7.40;nan;99442.63;4973472;28;20628;-78
2023/12/06 11:23:16;;;;;;;5.37;2.90;;;;;;;7.44;nan;99444.19;4974104;28;20287;-78
2023/12/06 11:25:43;;;;;;;7.28;3.20;;;;;;;7.44;nan;99446.78;4972717;28;21079;-78
2023/12/06 11:28:12;;;;;;;5.80;2.78;;;;;;;7.45;nan;99449.34;4969969;28;20203;-78
2023/12/06 11:30:48;;;;;;;2.65;2.45;;;;;;;7.46;nan;99442.34;4975037;28;20192;-78
2023/12/06 11:33:13;;;;;;;4.10;2.80;;;;;;;7.46;nan;99440.56;4973337;28;20290;-78
2023/12/06 11:35:50;;;;;;;2.83;2.43;;;;;;;7.48;nan;99437.84;4975827;28;20282;-78
2023/12/06 11:38:15;;;;;;;3.58;3.25;;;;;;;7.50;nan;99436.00;4970195;28;20692;-78
2023/12/06 11:41:12;;;;;;;5.73;3.57;;;;;;;7.50;nan;99429.00;4977049;28;20204;-78
2023/12/06 11:43:38;;;;;;;5.10;4.13;;;;;;;7.52;nan;99428.94;4979212;28;20212;-78
2023/12/06 11:46:08;;;;;;;5.10;3.50;;;;;;;7.56;nan;99434.81;4974095;28;20577;-79
2023/12/06 11:48:38;;;;;;;2.75;2.28;;;;;;;7.58;nan;99433.81;4982003;28;20212;-78
2023/12/06 11:51:04;;;;;;;4.85;3.67;;;;;;;7.61;nan;99436.25;4972438;28;20210;-78
2023/12/06 11:53:31;;;;;;;3.72;3.17;;;;;;;7.61;nan;99432.81;4975528;28;20207;-78
2023/12/06 11:55:57;;;;;;;4.30;3.45;;;;;;;7.62;nan;99437.97;4975179;28;20986;-78